Pittsburg, NH

7:27 PM EST on March 03, 2015 (GMT -0500)
APRSWXNET Pittsburg NH US | Change Station
CLOSE
Current Station
Personal Weather Station
Location: Pittsburg, NH
Elevation: 1833 ft
Nearby Weather Stations
Active Advisory: Winter Weather Advisory

Elev 1833 ft 45.11 °N, 71.29 °W | Updated 26 minutes ago

Mostly Cloudy
Mostly Cloudy
20 °F
Feels Like 11 °F
N
7
Wind Variable Wind from SSE
Gusts 14.0 mph

Today
High -- | Low -- °F
--% Chance of Precip.
Yesterday
High -- | Low -- °F
Precip. -- in
6:20 AM 5:35 PM
Waxing Gibbous, 97% visible
Pressure 29.98 in
Visibility 10.0 miles
Clouds Overcast 7000 ft
Windchill 11 °F
Dew Point 1 °F
Humidity 43%
Rainfall 0.00 in
Snow Depth Not available.
UV 0 out of 12
Pollen .40 out of 12
Air Quality Not available.
Flu Activity Not available.
METAR KBML 032352Z AUTO 16009KT 10SM OVC070 M04/M20 A2990 RMK AO2 SLP152 T10441200 11028 21050 58045

More Conditions Fewer Conditions

Pressure 29.98 in
Visibility 10.0 miles
Clouds Overcast 7000 ft
Windchill 11 °F
Dew Point 1 °F
Humidity 43%
Rainfall 0.00 in
Snow Depth Not available.
UV 0 out of 12
Pollen .40 out of 12
Air Quality Not available.
Flu Activity Not available.
METAR KBML 032352Z AUTO 16009KT 10SM OVC070 M04/M20 A2990 RMK AO2 SLP152 T10441200 11028 21050 58045

More Conditions Fewer Conditions

10-Day Weather Forecast

Almanac

Astronomy

Mar. 03, 2015 Rise Set
Actual Time
Civil Twilight
Nautical Twilight
Astronomical Twilight
Moon
Length of Visible Light
Length of Day
Tomorrow will be .
, % of the Moon is Illuminated

Today's Extremes

State Highs State Lows

Community

WunderPhotos

Upload Photos

1,802,340 photos uploaded!

WunderBlogs® & News

Nearby

Air Quality

  Air Quality AQ Index Pollutant
Not available.

Snow Depth

Station Depth Elevation

Earthquake Activity

City Distance Mag. Time & Date
Minimum magnitude displayed is 2.5.

Coastal Water Temperatures

Place Temperature

Nearby Weather Stations

Winter Weather Advisory
Statement as of 3:06 PM EST on March 03, 2015

... Winter Weather Advisory remains in effect until 7 am EST
Wednesday...

* hazard types... snow

* accumulations... snow accumulation of 3 to 5 inches.

* Timing... snow will begin late today and continue overnight...
ending by sunrise Wednesday.

* Impacts... roads will become snow covered and slippery.

* Winds... south 10 to 20 mph with gusts up to 40 mph.

* Temperatures... in the mid 20s.

Precautionary/preparedness actions...

A Winter Weather Advisory for snow means that periods of snow
will cause primarily travel difficulties. Be prepared for snow
covered roads and limited visibilities... and use caution while
driving.